sensor_id;sensor_type;location;lat;lon;timestamp;P1;durP1;ratioP1;P2;durP2;ratioP2
29824;SDS011;16713;52.916;12.834;2023-11-22T00:02:16;3.85;;;2.10;;
29824;SDS011;16713;52.916;12.834;2023-11-22T00:04:44;5.47;;;2.30;;
29824;SDS011;16713;52.916;12.834;2023-11-22T00:07:10;4.35;;;1.92;;
29824;SDS011;16713;52.916;12.834;2023-11-22T00:09:37;4.95;;;2.38;;
29824;SDS011;16713;52.916;12.834;2023-11-22T00:12:04;4.47;;;2.47;;
29824;SDS011;16713;52.916;12.834;2023-11-22T00:14:32;4.97;;;2.78;;
29824;SDS011;16713;52.916;12.834;2023-11-22T00:17:01;4.63;;;2.53;;
29824;SDS011;16713;52.916;12.834;2023-11-22T00:19:28;5.10;;;2.70;;
29824;SDS011;16713;52.916;12.834;2023-11-22T00:21:56;5.05;;;2.95;;
29824;SDS011;16713;52.916;12.834;2023-11-22T00:24:23;5.55;;;2.88;;
29824;SDS011;16713;52.916;12.834;2023-11-22T00:26:49;7.13;;;2.97;;
29824;SDS011;16713;52.916;12.834;2023-11-22T00:29:16;6.25;;;2.95;;
29824;SDS011;16713;52.916;12.834;2023-11-22T00:31:42;6.93;;;3.10;;
29824;SDS011;16713;52.916;12.834;2023-11-22T00:34:11;4.72;;;2.90;;
29824;SDS011;16713;52.916;12.834;2023-11-22T00:36:37;4.43;;;2.95;;
29824;SDS011;16713;52.916;12.834;2023-11-22T00:39:04;6.47;;;3.33;;
29824;SDS011;16713;52.916;12.834;2023-11-22T00:41:31;7.05;;;2.75;;
29824;SDS011;16713;52.916;12.834;2023-11-22T00:43:58;4.95;;;2.92;;
29824;SDS011;16713;52.916;12.834;2023-11-22T00:46:25;4.82;;;2.80;;
29824;SDS011;16713;52.916;12.834;2023-11-22T00:48:52;5.45;;;2.90;;
29824;SDS011;16713;52.916;12.834;2023-11-22T00:51:18;5.57;;;3.50;;
29824;SDS011;16713;52.916;12.834;2023-11-22T00:53:45;5.85;;;2.78;;
29824;SDS011;16713;52.916;12.834;2023-11-22T00:56:12;7.18;;;3.50;;
29824;SDS011;16713;52.916;12.834;2023-11-22T00:58:39;7.95;;;3.30;;
29824;SDS011;16713;52.916;12.834;2023-11-22T01:01:05;4.32;;;2.50;;
29824;SDS011;16713;52.916;12.834;2023-11-22T01:03:32;5.55;;;3.10;;
29824;SDS011;16713;52.916;12.834;2023-11-22T01:05:59;4.95;;;2.88;;
29824;SDS011;16713;52.916;12.834;2023-11-22T01:08:25;6.85;;;3.50;;
29824;SDS011;16713;52.916;12.834;2023-11-22T01:10:52;6.93;;;3.08;;
29824;SDS011;16713;52.916;12.834;2023-11-22T01:13:18;6.53;;;3.05;;
29824;SDS011;16713;52.916;12.834;2023-11-22T01:15:45;4.63;;;3.03;;
29824;SDS011;16713;52.916;12.834;2023-11-22T01:18:13;6.43;;;3.50;;
29824;SDS011;16713;52.916;12.834;2023-11-22T01:20:39;5.47;;;3.50;;
29824;SDS011;16713;52.916;12.834;2023-11-22T01:23:06;6.97;;;3.08;;
29824;SDS011;16713;52.916;12.834;2023-11-22T01:25:33;5.03;;;3.15;;
29824;SDS011;16713;52.916;12.834;2023-11-22T01:27:59;5.32;;;3.15;;
29824;SDS011;16713;52.916;12.834;2023-11-22T01:30:26;6.75;;;3.22;;
29824;SDS011;16713;52.916;12.834;2023-11-22T01:32:54;6.20;;;3.10;;
29824;SDS011;16713;52.916;12.834;2023-11-22T01:35:21;5.80;;;2.95;;
29824;SDS011;16713;52.916;12.834;2023-11-22T01:37:48;5.93;;;3.28;;
29824;SDS011;16713;52.916;12.834;2023-11-22T01:40:15;5.63;;;3.47;;
29824;SDS011;16713;52.916;12.834;2023-11-22T01:42:42;4.57;;;3.20;;
29824;SDS011;16713;52.916;12.834;2023-11-22T01:45:09;7.60;;;3.63;;
29824;SDS011;16713;52.916;12.834;2023-11-22T01:47:36;4.85;;;3.13;;
29824;SDS011;16713;52.916;12.834;2023-11-22T01:50:04;5.70;;;3.30;;
29824;SDS011;16713;52.916;12.834;2023-11-22T01:52:32;6.93;;;3.35;;
29824;SDS011;16713;52.916;12.834;2023-11-22T01:55:00;12.52;;;4.72;;
29824;SDS011;16713;52.916;12.834;2023-11-22T01:57:33;5.97;;;3.28;;
29824;SDS011;16713;52.916;12.834;2023-11-22T02:00:03;8.40;;;3.90;;
29824;SDS011;16713;52.916;12.834;2023-11-22T02:02:33;5.88;;;3.53;;
29824;SDS011;16713;52.916;12.834;2023-11-22T02:05:00;6.20;;;3.67;;
29824;SDS011;16713;52.916;12.834;2023-11-22T02:07:27;5.88;;;3.60;;
29824;SDS011;16713;52.916;12.834;2023-11-22T02:09:54;6.38;;;3.80;;
29824;SDS011;16713;52.916;12.834;2023-11-22T02:12:20;6.90;;;3.92;;
29824;SDS011;16713;52.916;12.834;2023-11-22T02:14:47;6.18;;;3.53;;
29824;SDS011;16713;52.916;12.834;2023-11-22T02:17:14;5.78;;;3.63;;
29824;SDS011;16713;52.916;12.834;2023-11-22T02:19:43;7.95;;;3.22;;
29824;SDS011;16713;52.916;12.834;2023-11-22T02:22:09;6.72;;;3.65;;
29824;SDS011;16713;52.916;12.834;2023-11-22T02:24:37;6.43;;;3.58;;
29824;SDS011;16713;52.916;12.834;2023-11-22T02:27:03;8.20;;;3.67;;
29824;SDS011;16713;52.916;12.834;2023-11-22T02:29:30;9.23;;;4.35;;
29824;SDS011;16713;52.916;12.834;2023-11-22T02:31:57;5.30;;;3.70;;
29824;SDS011;16713;52.916;12.834;2023-11-22T02:34:23;8.63;;;3.58;;
29824;SDS011;16713;52.916;12.834;2023-11-22T02:36:50;8.02;;;5.03;;
29824;SDS011;16713;52.916;12.834;2023-11-22T02:39:31;5.07;;;3.42;;
29824;SDS011;16713;52.916;12.834;2023-11-22T02:42:09;7.22;;;4.22;;
29824;SDS011;16713;52.916;12.834;2023-11-22T02:44:35;6.68;;;4.53;;
29824;SDS011;16713;52.916;12.834;2023-11-22T02:47:02;6.78;;;4.35;;
29824;SDS011;16713;52.916;12.834;2023-11-22T02:49:30;6.88;;;3.85;;
29824;SDS011;16713;52.916;12.834;2023-11-22T02:51:57;7.78;;;3.95;;
29824;SDS011;16713;52.916;12.834;2023-11-22T02:54:23;8.15;;;3.92;;
29824;SDS011;16713;52.916;12.834;2023-11-22T02:56:50;7.28;;;3.88;;
29824;SDS011;16713;52.916;12.834;2023-11-22T02:59:16;5.50;;;3.78;;
29824;SDS011;16713;52.916;12.834;2023-11-22T03:01:45;6.25;;;3.97;;
29824;SDS011;16713;52.916;12.834;2023-11-22T03:04:12;6.88;;;4.13;;
29824;SDS011;16713;52.916;12.834;2023-11-22T03:06:40;6.85;;;4.07;;
29824;SDS011;16713;52.916;12.834;2023-11-22T03:09:06;7.53;;;3.90;;
29824;SDS011;16713;52.916;12.834;2023-11-22T03:11:34;6.75;;;3.88;;
29824;SDS011;16713;52.916;12.834;2023-11-22T03:14:01;8.55;;;4.13;;
29824;SDS011;16713;52.916;12.834;2023-11-22T03:16:30;7.32;;;3.70;;
29824;SDS011;16713;52.916;12.834;2023-11-22T03:18:56;8.55;;;4.68;;
29824;SDS011;16713;52.916;12.834;2023-11-22T03:21:24;8.77;;;3.63;;
29824;SDS011;16713;52.916;12.834;2023-11-22T03:23:54;9.10;;;4.57;;
29824;SDS011;16713;52.916;12.834;2023-11-22T03:26:20;8.50;;;4.05;;
29824;SDS011;16713;52.916;12.834;2023-11-22T03:28:47;7.22;;;3.80;;
29824;SDS011;16713;52.916;12.834;2023-11-22T03:31:13;10.63;;;4.20;;
29824;SDS011;16713;52.916;12.834;2023-11-22T03:33:40;9.93;;;5.75;;
29824;SDS011;16713;52.916;12.834;2023-11-22T03:36:07;6.82;;;3.85;;
29824;SDS011;16713;52.916;12.834;2023-11-22T03:38:33;9.70;;;4.15;;
29824;SDS011;16713;52.916;12.834;2023-11-22T03:41:00;6.65;;;4.20;;
29824;SDS011;16713;52.916;12.834;2023-11-22T03:43:26;8.10;;;4.18;;
29824;SDS011;16713;52.916;12.834;2023-11-22T03:45:53;8.57;;;4.63;;
29824;SDS011;16713;52.916;12.834;2023-11-22T03:48:20;9.10;;;4.35;;
29824;SDS011;16713;52.916;12.834;2023-11-22T03:50:51;7.88;;;3.92;;
29824;SDS011;16713;52.916;12.834;2023-11-22T03:53:18;26.90;;;11.65;;
29824;SDS011;16713;52.916;12.834;2023-11-22T03:55:48;8.45;;;4.85;;
29824;SDS011;16713;52.916;12.834;2023-11-22T03:58:16;8.27;;;4.80;;
29824;SDS011;16713;52.916;12.834;2023-11-22T04:00:44;8.93;;;4.07;;
29824;SDS011;16713;52.916;12.834;2023-11-22T04:03:11;8.80;;;4.65;;
29824;SDS011;16713;52.916;12.834;2023-11-22T04:05:37;6.22;;;4.22;;
29824;SDS011;16713;52.916;12.834;2023-11-22T04:08:04;8.43;;;4.45;;
29824;SDS011;16713;52.916;12.834;2023-11-22T04:10:31;9.07;;;4.05;;
29824;SDS011;16713;52.916;12.834;2023-11-22T04:12:57;7.80;;;4.55;;
29824;SDS011;16713;52.916;12.834;2023-11-22T04:15:24;10.07;;;4.55;;
29824;SDS011;16713;52.916;12.834;2023-11-22T04:17:52;9.27;;;4.45;;
29824;SDS011;16713;52.916;12.834;2023-11-22T04:20:21;6.38;;;4.10;;
29824;SDS011;16713;52.916;12.834;2023-11-22T04:22:48;20.75;;;10.95;;
29824;SDS011;16713;52.916;12.834;2023-11-22T04:25:14;12.88;;;7.13;;
29824;SDS011;16713;52.916;12.834;2023-11-22T04:27:41;10.85;;;4.90;;
29824;SDS011;16713;52.916;12.834;2023-11-22T04:30:08;10.85;;;4.43;;
29824;SDS011;16713;52.916;12.834;2023-11-22T04:32:40;8.32;;;5.03;;
29824;SDS011;16713;52.916;12.834;2023-11-22T04:35:14;9.30;;;4.30;;
29824;SDS011;16713;52.916;12.834;2023-11-22T04:37:40;7.90;;;4.32;;
29824;SDS011;16713;52.916;12.834;2023-11-22T04:40:07;6.03;;;4.50;;
29824;SDS011;16713;52.916;12.834;2023-11-22T04:42:34;10.23;;;4.50;;
29824;SDS011;16713;52.916;12.834;2023-11-22T04:45:03;7.93;;;4.10;;
29824;SDS011;16713;52.916;12.834;2023-11-22T04:47:30;7.18;;;4.10;;
29824;SDS011;16713;52.916;12.834;2023-11-22T04:49:57;8.65;;;4.53;;
29824;SDS011;16713;52.916;12.834;2023-11-22T04:52:23;24.00;;;10.60;;
29824;SDS011;16713;52.916;12.834;2023-11-22T04:54:50;8.23;;;5.00;;
29824;SDS011;16713;52.916;12.834;2023-11-22T04:57:16;7.03;;;3.97;;
29824;SDS011;16713;52.916;12.834;2023-11-22T04:59:43;10.05;;;4.28;;
29824;SDS011;16713;52.916;12.834;2023-11-22T05:02:09;8.55;;;4.60;;
29824;SDS011;16713;52.916;12.834;2023-11-22T05:04:37;11.02;;;4.57;;
29824;SDS011;16713;52.916;12.834;2023-11-22T05:07:04;9.18;;;4.60;;
29824;SDS011;16713;52.916;12.834;2023-11-22T05:09:30;10.07;;;4.82;;
29824;SDS011;16713;52.916;12.834;2023-11-22T05:11:57;8.25;;;4.88;;
29824;SDS011;16713;52.916;12.834;2023-11-22T05:14:24;9.38;;;4.28;;
29824;SDS011;16713;52.916;12.834;2023-11-22T05:16:50;23.17;;;11.40;;
29824;SDS011;16713;52.916;12.834;2023-11-22T05:19:17;12.20;;;6.05;;
29824;SDS011;16713;52.916;12.834;2023-11-22T05:21:43;10.60;;;5.28;;
29824;SDS011;16713;52.916;12.834;2023-11-22T05:24:10;12.98;;;5.65;;
29824;SDS011;16713;52.916;12.834;2023-11-22T05:26:36;12.77;;;5.38;;
29824;SDS011;16713;52.916;12.834;2023-11-22T05:29:04;10.38;;;5.07;;
29824;SDS011;16713;52.916;12.834;2023-11-22T05:31:33;8.73;;;4.90;;
29824;SDS011;16713;52.916;12.834;2023-11-22T05:34:00;8.00;;;5.18;;
29824;SDS011;16713;52.916;12.834;2023-11-22T05:36:26;10.23;;;4.68;;
29824;SDS011;16713;52.916;12.834;2023-11-22T05:38:53;6.97;;;3.85;;
29824;SDS011;16713;52.916;12.834;2023-11-22T05:41:19;9.52;;;4.78;;
29824;SDS011;16713;52.916;12.834;2023-11-22T05:43:46;9.50;;;4.35;;
29824;SDS011;16713;52.916;12.834;2023-11-22T05:46:12;7.00;;;3.75;;
29824;SDS011;16713;52.916;12.834;2023-11-22T05:48:39;9.18;;;4.65;;
29824;SDS011;16713;52.916;12.834;2023-11-22T05:51:06;7.80;;;4.65;;
29824;SDS011;16713;52.916;12.834;2023-11-22T05:53:35;12.93;;;4.18;;
29824;SDS011;16713;52.916;12.834;2023-11-22T05:56:01;9.07;;;4.43;;
29824;SDS011;16713;52.916;12.834;2023-11-22T05:58:30;8.90;;;4.45;;
29824;SDS011;16713;52.916;12.834;2023-11-22T06:00:57;9.25;;;5.18;;
29824;SDS011;16713;52.916;12.834;2023-11-22T06:03:23;8.35;;;4.57;;
29824;SDS011;16713;52.916;12.834;2023-11-22T06:05:50;8.95;;;5.55;;
29824;SDS011;16713;52.916;12.834;2023-11-22T06:08:17;9.93;;;4.97;;
29824;SDS011;16713;52.916;12.834;2023-11-22T06:10:43;6.47;;;4.15;;
29824;SDS011;16713;52.916;12.834;2023-11-22T06:13:10;8.80;;;5.25;;
29824;SDS011;16713;52.916;12.834;2023-11-22T06:15:38;7.95;;;4.78;;
29824;SDS011;16713;52.916;12.834;2023-11-22T06:18:05;10.30;;;5.30;;
29824;SDS011;16713;52.916;12.834;2023-11-22T06:20:31;11.05;;;5.38;;
29824;SDS011;16713;52.916;12.834;2023-11-22T06:22:58;8.57;;;4.55;;
29824;SDS011;16713;52.916;12.834;2023-11-22T06:25:25;12.32;;;5.10;;
29824;SDS011;16713;52.916;12.834;2023-11-22T06:27:51;9.02;;;5.05;;
29824;SDS011;16713;52.916;12.834;2023-11-22T06:30:18;10.32;;;4.93;;
29824;SDS011;16713;52.916;12.834;2023-11-22T06:32:45;10.38;;;5.60;;
29824;SDS011;16713;52.916;12.834;2023-11-22T06:35:12;8.40;;;4.72;;
29824;SDS011;16713;52.916;12.834;2023-11-22T06:37:41;10.65;;;5.30;;
29824;SDS011;16713;52.916;12.834;2023-11-22T06:40:07;14.27;;;5.93;;
29824;SDS011;16713;52.916;12.834;2023-11-22T06:42:34;14.38;;;6.93;;
29824;SDS011;16713;52.916;12.834;2023-11-22T06:45:01;16.25;;;8.00;;
29824;SDS011;16713;52.916;12.834;2023-11-22T06:47:28;17.65;;;7.88;;
29824;SDS011;16713;52.916;12.834;2023-11-22T06:49:54;16.00;;;8.35;;
29824;SDS011;16713;52.916;12.834;2023-11-22T06:52:21;17.00;;;7.70;;
29824;SDS011;16713;52.916;12.834;2023-11-22T06:54:47;16.00;;;7.95;;
29824;SDS011;16713;52.916;12.834;2023-11-22T06:57:14;15.10;;;9.13;;
29824;SDS011;16713;52.916;12.834;2023-11-22T06:59:41;16.23;;;8.82;;
29824;SDS011;16713;52.916;12.834;2023-11-22T07:02:07;17.00;;;7.45;;
29824;SDS011;16713;52.916;12.834;2023-11-22T07:04:35;15.85;;;7.28;;
29824;SDS011;16713;52.916;12.834;2023-11-22T07:07:01;15.82;;;7.63;;
29824;SDS011;16713;52.916;12.834;2023-11-22T07:09:30;15.63;;;7.13;;
29824;SDS011;16713;52.916;12.834;2023-11-22T07:11:57;12.55;;;6.40;;
29824;SDS011;16713;52.916;12.834;2023-11-22T07:14:25;13.18;;;6.50;;
29824;SDS011;16713;52.916;12.834;2023-11-22T07:16:52;13.60;;;6.85;;
29824;SDS011;16713;52.916;12.834;2023-11-22T07:19:20;16.05;;;7.35;;
29824;SDS011;16713;52.916;12.834;2023-11-22T07:21:47;18.05;;;8.73;;
29824;SDS011;16713;52.916;12.834;2023-11-22T07:24:14;17.00;;;8.45;;
29824;SDS011;16713;52.916;12.834;2023-11-22T07:26:42;23.95;;;10.43;;
29824;SDS011;16713;52.916;12.834;2023-11-22T07:29:08;21.25;;;9.45;;
29824;SDS011;16713;52.916;12.834;2023-11-22T07:31:35;14.68;;;8.43;;
29824;SDS011;16713;52.916;12.834;2023-11-22T07:34:02;17.05;;;7.18;;
29824;SDS011;16713;52.916;12.834;2023-11-22T07:36:29;11.93;;;6.07;;
29824;SDS011;16713;52.916;12.834;2023-11-22T07:38:56;15.73;;;7.57;;
29824;SDS011;16713;52.916;12.834;2023-11-22T07:41:23;14.38;;;6.70;;
29824;SDS011;16713;52.916;12.834;2023-11-22T07:43:50;15.63;;;6.13;;
29824;SDS011;16713;52.916;12.834;2023-11-22T07:46:16;16.25;;;6.78;;
29824;SDS011;16713;52.916;12.834;2023-11-22T07:48:45;13.45;;;6.63;;
29824;SDS011;16713;52.916;12.834;2023-11-22T07:51:13;15.40;;;7.07;;
29824;SDS011;16713;52.916;12.834;2023-11-22T07:53:42;11.55;;;6.18;;
29824;SDS011;16713;52.916;12.834;2023-11-22T07:56:10;17.08;;;7.13;;
29824;SDS011;16713;52.916;12.834;2023-11-22T07:58:37;16.98;;;6.95;;
29824;SDS011;16713;52.916;12.834;2023-11-22T08:01:04;14.23;;;6.53;;
29824;SDS011;16713;52.916;12.834;2023-11-22T08:03:31;9.93;;;6.65;;
29824;SDS011;16713;52.916;12.834;2023-11-22T08:05:58;12.05;;;7.28;;
29824;SDS011;16713;52.916;12.834;2023-11-22T08:08:24;13.38;;;7.78;;
29824;SDS011;16713;52.916;12.834;2023-11-22T08:10:52;15.57;;;7.25;;
29824;SDS011;16713;52.916;12.834;2023-11-22T08:13:19;12.43;;;7.10;;
29824;SDS011;16713;52.916;12.834;2023-11-22T08:15:49;11.52;;;7.53;;
29824;SDS011;16713;52.916;12.834;2023-11-22T08:18:15;11.43;;;6.47;;
29824;SDS011;16713;52.916;12.834;2023-11-22T08:20:43;12.95;;;6.85;;
29824;SDS011;16713;52.916;12.834;2023-11-22T08:23:10;8.48;;;5.88;;
29824;SDS011;16713;52.916;12.834;2023-11-22T08:25:39;14.07;;;6.57;;
29824;SDS011;16713;52.916;12.834;2023-11-22T08:28:09;12.37;;;6.93;;
29824;SDS011;16713;52.916;12.834;2023-11-22T08:30:36;12.77;;;6.30;;
29824;SDS011;16713;52.916;12.834;2023-11-22T08:33:03;10.88;;;6.13;;
29824;SDS011;16713;52.916;12.834;2023-11-22T08:35:30;12.05;;;5.50;;
29824;SDS011;16713;52.916;12.834;2023-11-22T08:37:56;11.82;;;7.50;;
29824;SDS011;16713;52.916;12.834;2023-11-22T08:40:24;14.60;;;7.35;;
29824;SDS011;16713;52.916;12.834;2023-11-22T08:42:52;11.48;;;6.65;;
29824;SDS011;16713;52.916;12.834;2023-11-22T08:45:19;9.45;;;6.07;;
29824;SDS011;16713;52.916;12.834;2023-11-22T08:47:46;10.80;;;6.55;;
29824;SDS011;16713;52.916;12.834;2023-11-22T08:50:12;12.73;;;7.25;;
29824;SDS011;16713;52.916;12.834;2023-11-22T08:52:39;12.98;;;6.97;;
29824;SDS011;16713;52.916;12.834;2023-11-22T08:55:08;14.32;;;7.55;;
29824;SDS011;16713;52.916;12.834;2023-11-22T08:57:35;13.95;;;7.10;;
29824;SDS011;16713;52.916;12.834;2023-11-22T09:00:07;13.00;;;7.20;;
29824;SDS011;16713;52.916;12.834;2023-11-22T09:02:35;15.18;;;7.72;;
29824;SDS011;16713;52.916;12.834;2023-11-22T09:05:03;13.10;;;6.88;;
29824;SDS011;16713;52.916;12.834;2023-11-22T09:07:33;13.50;;;7.10;;
29824;SDS011;16713;52.916;12.834;2023-11-22T09:10:03;13.02;;;6.80;;
29824;SDS011;16713;52.916;12.834;2023-11-22T09:12:37;15.52;;;7.05;;
29824;SDS011;16713;52.916;12.834;2023-11-22T09:15:09;12.50;;;6.88;;
29824;SDS011;16713;52.916;12.834;2023-11-22T09:17:39;12.60;;;7.27;;
29824;SDS011;16713;52.916;12.834;2023-11-22T09:20:13;16.20;;;7.88;;
29824;SDS011;16713;52.916;12.834;2023-11-22T09:22:41;11.18;;;6.35;;
29824;SDS011;16713;52.916;12.834;2023-11-22T09:25:12;13.50;;;7.22;;
29824;SDS011;16713;52.916;12.834;2023-11-22T09:27:38;14.73;;;8.07;;
29824;SDS011;16713;52.916;12.834;2023-11-22T09:30:06;16.75;;;8.68;;
29824;SDS011;16713;52.916;12.834;2023-11-22T09:32:37;13.03;;;7.50;;
29824;SDS011;16713;52.916;12.834;2023-11-22T09:35:05;13.85;;;7.85;;
29824;SDS011;16713;52.916;12.834;2023-11-22T09:37:31;18.20;;;8.38;;
29824;SDS011;16713;52.916;12.834;2023-11-22T09:39:59;12.55;;;8.07;;
29824;SDS011;16713;52.916;12.834;2023-11-22T09:42:30;9.02;;;5.35;;
29824;SDS011;16713;52.916;12.834;2023-11-22T09:44:56;13.13;;;8.45;;
29824;SDS011;16713;52.916;12.834;2023-11-22T09:47:23;16.25;;;7.28;;
29824;SDS011;16713;52.916;12.834;2023-11-22T09:49:50;15.48;;;7.82;;
29824;SDS011;16713;52.916;12.834;2023-11-22T09:52:21;12.40;;;8.10;;
29824;SDS011;16713;52.916;12.834;2023-11-22T09:54:55;13.55;;;7.47;;
29824;SDS011;16713;52.916;12.834;2023-11-22T09:57:22;12.52;;;7.22;;
29824;SDS011;16713;52.916;12.834;2023-11-22T09:59:50;14.07;;;7.45;;
29824;SDS011;16713;52.916;12.834;2023-11-22T10:02:21;14.85;;;7.90;;
29824;SDS011;16713;52.916;12.834;2023-11-22T10:04:53;14.63;;;7.55;;
29824;SDS011;16713;52.916;12.834;2023-11-22T10:07:21;12.60;;;7.22;;
29824;SDS011;16713;52.916;12.834;2023-11-22T10:09:48;14.73;;;7.85;;
29824;SDS011;16713;52.916;12.834;2023-11-22T10:12:20;11.15;;;6.60;;
29824;SDS011;16713;52.916;12.834;2023-11-22T10:14:47;11.93;;;7.20;;
29824;SDS011;16713;52.916;12.834;2023-11-22T10:17:14;12.75;;;7.32;;
29824;SDS011;16713;52.916;12.834;2023-11-22T10:19:43;13.38;;;7.03;;
29824;SDS011;16713;52.916;12.834;2023-11-22T10:22:09;11.20;;;6.47;;
29824;SDS011;16713;52.916;12.834;2023-11-22T10:24:36;11.38;;;6.65;;
29824;SDS011;16713;52.916;12.834;2023-11-22T10:27:03;9.88;;;6.15;;
29824;SDS011;16713;52.916;12.834;2023-11-22T10:29:30;10.93;;;7.10;;
29824;SDS011;16713;52.916;12.834;2023-11-22T10:31:56;15.88;;;7.90;;
29824;SDS011;16713;52.916;12.834;2023-11-22T10:34:23;13.45;;;7.30;;
29824;SDS011;16713;52.916;12.834;2023-11-22T10:36:52;11.43;;;6.15;;
29824;SDS011;16713;52.916;12.834;2023-11-22T10:39:21;13.65;;;7.00;;
29824;SDS011;16713;52.916;12.834;2023-11-22T10:41:48;9.82;;;6.00;;
29824;SDS011;16713;52.916;12.834;2023-11-22T10:44:19;12.10;;;5.90;;
29824;SDS011;16713;52.916;12.834;2023-11-22T10:46:48;14.60;;;7.72;;
29824;SDS011;16713;52.916;12.834;2023-11-22T10:49:17;11.38;;;6.55;;
29824;SDS011;16713;52.916;12.834;2023-11-22T10:51:44;11.65;;;6.75;;
29824;SDS011;16713;52.916;12.834;2023-11-22T10:54:18;12.40;;;7.20;;
29824;SDS011;16713;52.916;12.834;2023-11-22T10:56:46;12.90;;;7.50;;
29824;SDS011;16713;52.916;12.834;2023-11-22T10:59:19;12.48;;;7.03;;
29824;SDS011;16713;52.916;12.834;2023-11-22T11:01:49;10.88;;;6.60;;
29824;SDS011;16713;52.916;12.834;2023-11-22T11:04:27;14.98;;;7.15;;
29824;SDS011;16713;52.916;12.834;2023-11-22T11:07:02;10.57;;;6.43;;
29824;SDS011;16713;52.916;12.834;2023-11-22T11:09:29;12.05;;;6.40;;
29824;SDS011;16713;52.916;12.834;2023-11-22T11:11:59;9.25;;;5.57;;
29824;SDS011;16713;52.916;12.834;2023-11-22T11:14:28;8.90;;;5.72;;
29824;SDS011;16713;52.916;12.834;2023-11-22T11:16:56;11.25;;;6.88;;
29824;SDS011;16713;52.916;12.834;2023-11-22T11:19:24;11.55;;;6.25;;
29824;SDS011;16713;52.916;12.834;2023-11-22T11:21:51;10.35;;;5.60;;
29824;SDS011;16713;52.916;12.834;2023-11-22T11:24:18;11.07;;;6.40;;
29824;SDS011;16713;52.916;12.834;2023-11-22T11:26:49;9.93;;;6.32;;
29824;SDS011;16713;52.916;12.834;2023-11-22T11:29:32;9.27;;;6.60;;
29824;SDS011;16713;52.916;12.834;2023-11-22T11:32:01;9.35;;;5.68;;
29824;SDS011;16713;52.916;12.834;2023-11-22T11:34:29;9.00;;;5.75;;
29824;SDS011;16713;52.916;12.834;2023-11-22T11:36:56;9.55;;;5.90;;
29824;SDS011;16713;52.916;12.834;2023-11-22T11:39:25;11.27;;;5.72;;
29824;SDS011;16713;52.916;12.834;2023-11-22T11:42:10;12.45;;;7.07;;
29824;SDS011;16713;52.916;12.834;2023-11-22T11:47:27;13.00;;;7.32;;
29824;SDS011;16713;52.916;12.834;2023-11-22T11:49:55;11.75;;;6.75;;
29824;SDS011;16713;52.916;12.834;2023-11-22T11:52:22;13.80;;;7.07;;
29824;SDS011;16713;52.916;12.834;2023-11-22T11:54:50;11.13;;;6.22;;
29824;SDS011;16713;52.916;12.834;2023-11-22T11:57:17;11.85;;;7.43;;
29824;SDS011;16713;52.916;12.834;2023-11-22T11:59:44;12.15;;;6.22;;
29824;SDS011;16713;52.916;12.834;2023-11-22T12:02:12;10.48;;;6.10;;
29824;SDS011;16713;52.916;12.834;2023-11-22T12:04:39;14.55;;;7.18;;
29824;SDS011;16713;52.916;12.834;2023-11-22T12:07:07;10.30;;;6.00;;
29824;SDS011;16713;52.916;12.834;2023-11-22T12:09:35;9.88;;;6.53;;
29824;SDS011;16713;52.916;12.834;2023-11-22T12:12:02;13.45;;;7.13;;
29824;SDS011;16713;52.916;12.834;2023-11-22T12:14:29;11.18;;;7.10;;
29824;SDS011;16713;52.916;12.834;2023-11-22T12:16:57;11.75;;;7.07;;
29824;SDS011;16713;52.916;12.834;2023-11-22T12:19:26;9.75;;;6.28;;
29824;SDS011;16713;52.916;12.834;2023-11-22T12:21:54;10.50;;;6.47;;
29824;SDS011;16713;52.916;12.834;2023-11-22T12:24:21;12.25;;;7.60;;
29824;SDS011;16713;52.916;12.834;2023-11-22T12:26:48;11.32;;;7.07;;
29824;SDS011;16713;52.916;12.834;2023-11-22T12:29:16;10.52;;;6.53;;
29824;SDS011;16713;52.916;12.834;2023-11-22T12:31:48;12.18;;;7.03;;
29824;SDS011;16713;52.916;12.834;2023-11-22T12:34:22;10.88;;;6.53;;
29824;SDS011;16713;52.916;12.834;2023-11-22T12:36:50;11.20;;;6.38;;
29824;SDS011;16713;52.916;12.834;2023-11-22T12:39:19;13.90;;;6.93;;
29824;SDS011;16713;52.916;12.834;2023-11-22T12:41:50;11.80;;;6.57;;
29824;SDS011;16713;52.916;12.834;2023-11-22T12:44:31;9.63;;;6.07;;
29824;SDS011;16713;52.916;12.834;2023-11-22T12:46:59;8.80;;;5.68;;
29824;SDS011;16713;52.916;12.834;2023-11-22T12:49:30;9.82;;;5.88;;
29824;SDS011;16713;52.916;12.834;2023-11-22T12:51:58;9.68;;;6.22;;
29824;SDS011;16713;52.916;12.834;2023-11-22T12:54:25;11.98;;;6.40;;
29824;SDS011;16713;52.916;12.834;2023-11-22T12:56:52;9.60;;;5.40;;
29824;SDS011;16713;52.916;12.834;2023-11-22T12:59:26;10.43;;;6.53;;
29824;SDS011;16713;52.916;12.834;2023-11-22T13:01:59;10.10;;;6.55;;
29824;SDS011;16713;52.916;12.834;2023-11-22T13:04:27;10.02;;;6.75;;
29824;SDS011;16713;52.916;12.834;2023-11-22T13:06:56;9.23;;;6.15;;
29824;SDS011;16713;52.916;12.834;2023-11-22T13:09:24;9.90;;;5.80;;
29824;SDS011;16713;52.916;12.834;2023-11-22T13:11:50;11.20;;;6.45;;
29824;SDS011;16713;52.916;12.834;2023-11-22T13:14:18;11.15;;;6.20;;
29824;SDS011;16713;52.916;12.834;2023-11-22T13:16:44;13.68;;;7.38;;
29824;SDS011;16713;52.916;12.834;2023-11-22T13:19:11;13.02;;;7.30;;
29824;SDS011;16713;52.916;12.834;2023-11-22T13:21:38;14.10;;;6.75;;
29824;SDS011;16713;52.916;12.834;2023-11-22T13:24:07;13.00;;;6.95;;
29824;SDS011;16713;52.916;12.834;2023-11-22T13:26:34;14.85;;;7.18;;
29824;SDS011;16713;52.916;12.834;2023-11-22T13:29:01;13.77;;;6.75;;
29824;SDS011;16713;52.916;12.834;2023-11-22T13:31:27;11.77;;;6.50;;
29824;SDS011;16713;52.916;12.834;2023-11-22T13:33:54;9.23;;;6.13;;
29824;SDS011;16713;52.916;12.834;2023-11-22T13:36:21;11.13;;;5.75;;
29824;SDS011;16713;52.916;12.834;2023-11-22T13:38:48;11.45;;;6.85;;
29824;SDS011;16713;52.916;12.834;2023-11-22T13:41:14;8.27;;;5.78;;
29824;SDS011;16713;52.916;12.834;2023-11-22T13:43:41;13.65;;;7.25;;
29824;SDS011;16713;52.916;12.834;2023-11-22T13:46:07;10.40;;;6.47;;
29824;SDS011;16713;52.916;12.834;2023-11-22T13:48:38;15.07;;;7.80;;
29824;SDS011;16713;52.916;12.834;2023-11-22T13:51:05;13.60;;;7.10;;
29824;SDS011;16713;52.916;12.834;2023-11-22T13:53:36;12.00;;;7.25;;
29824;SDS011;16713;52.916;12.834;2023-11-22T13:56:08;17.63;;;8.57;;
29824;SDS011;16713;52.916;12.834;2023-11-22T13:58:35;14.80;;;8.27;;
29824;SDS011;16713;52.916;12.834;2023-11-22T14:01:02;18.20;;;9.65;;
29824;SDS011;16713;52.916;12.834;2023-11-22T14:03:32;17.02;;;8.48;;
29824;SDS011;16713;52.916;12.834;2023-11-22T14:05:59;12.00;;;8.55;;
29824;SDS011;16713;52.916;12.834;2023-11-22T14:08:26;14.77;;;8.32;;
29824;SDS011;16713;52.916;12.834;2023-11-22T14:10:53;12.93;;;7.93;;
29824;SDS011;16713;52.916;12.834;2023-11-22T14:13:20;13.45;;;7.85;;
29824;SDS011;16713;52.916;12.834;2023-11-22T14:15:47;19.27;;;11.13;;
29824;SDS011;16713;52.916;12.834;2023-11-22T14:18:14;22.48;;;11.95;;
29824;SDS011;16713;52.916;12.834;2023-11-22T14:20:43;21.48;;;12.70;;
29824;SDS011;16713;52.916;12.834;2023-11-22T14:23:10;32.63;;;15.15;;
29824;SDS011;16713;52.916;12.834;2023-11-22T14:25:37;19.98;;;10.48;;
29824;SDS011;16713;52.916;12.834;2023-11-22T14:28:07;13.65;;;8.90;;
29824;SDS011;16713;52.916;12.834;2023-11-22T14:30:34;13.63;;;8.77;;
29824;SDS011;16713;52.916;12.834;2023-11-22T14:33:03;13.15;;;8.65;;